Time;durP1;ratioP1;P1;durP2;ratioP2;P2;SDS_P1;SDS_P2;PMS_P1;PMS_P2;Temp;Humidity;BMP_temperature;BMP_pressure;BME280_temperature;BME280_humidity;BME280_pressure;Samples;Min_cycle;Max_cycle;Signal;HPM_P1;HPM_P2
2022/11/22 00:00:24;;;;;;;3.10;2.05;;;;;;;0.81;93.30;100112.28;5078063;28;20046;-71
2022/11/22 00:02:49;;;;;;;4.15;2.50;;;;;;;0.82;93.16;100110.47;5082152;28;20051;-71
2022/11/22 00:05:15;;;;;;;3.58;2.53;;;;;;;0.67;93.17;100095.13;5092689;28;20620;-71
2022/11/22 00:07:41;;;;;;;4.03;2.72;;;;;;;0.63;93.20;100098.22;5055529;28;20047;-71
2022/11/22 00:10:09;;;;;;;4.18;2.58;;;;;;;0.73;93.22;100106.94;5084695;28;20036;-72
2022/11/22 00:12:35;;;;;;;2.60;2.35;;;;;;;0.73;93.22;100104.28;5113104;28;20102;-71
2022/11/22 00:15:00;;;;;;;3.22;2.50;;;;;;;0.71;93.87;100111.53;5100811;28;20160;-71
2022/11/22 00:17:26;;;;;;;4.53;2.38;;;;;;;0.70;93.50;100110.72;5108651;28;20078;-71
2022/11/22 00:19:51;;;;;;;2.95;2.20;;;;;;;0.70;93.20;100118.66;5073080;28;20036;-72
2022/11/22 00:22:16;;;;;;;3.00;2.17;;;;;;;0.67;93.21;100116.31;5065906;28;20040;-71
2022/11/22 00:24:43;;;;;;;4.60;2.60;;;;;;;0.52;92.96;100090.50;5094906;28;20031;-71
2022/11/22 00:27:08;;;;;;;4.10;2.60;;;;;;;0.61;93.08;100113.44;5101734;28;20028;-71
2022/11/22 00:29:34;;;;;;;4.38;2.45;;;;;;;0.57;93.28;100117.38;5089203;28;20042;-71
2022/11/22 00:31:59;;;;;;;3.42;2.28;;;;;;;0.54;93.20;100117.66;5077509;28;20035;-71
2022/11/22 00:34:24;;;;;;;3.50;2.45;;;;;;;0.45;93.54;100103.53;5085929;28;20035;-71
2022/11/22 00:36:50;;;;;;;3.45;2.25;;;;;;;0.40;92.95;100111.09;5098607;28;20046;-71
2022/11/22 00:39:15;;;;;;;2.83;2.33;;;;;;;0.29;92.82;100106.81;5106969;28;20494;-72
2022/11/22 00:41:40;;;;;;;3.03;2.33;;;;;;;0.23;93.06;100113.56;5058667;28;20036;-72
2022/11/22 00:44:06;;;;;;;4.32;2.75;;;;;;;0.23;92.92;100107.44;5095479;28;20063;-71
2022/11/22 00:46:31;;;;;;;3.78;2.70;;;;;;;0.21;93.14;100112.88;5084950;28;20039;-71
2022/11/22 00:48:57;;;;;;;3.45;2.78;;;;;;;0.25;93.30;100102.81;5116426;28;20180;-71
2022/11/22 00:51:22;;;;;;;2.88;2.30;;;;;;;0.25;93.12;100113.41;5107578;28;20046;-72
2022/11/22 00:53:47;;;;;;;3.97;2.55;;;;;;;0.27;93.04;100108.81;5091030;28;20028;-71
2022/11/22 00:56:13;;;;;;;4.13;2.85;;;;;;;0.30;92.91;100108.50;5096354;28;20059;-71
2022/11/22 00:58:38;;;;;;;3.33;2.70;;;;;;;0.13;93.06;100082.84;5084780;28;20093;-71
2022/11/22 01:01:03;;;;;;;3.95;2.92;;;;;;;0.03;93.13;100074.16;5096991;28;20035;-71
2022/11/22 01:03:29;;;;;;;3.70;2.85;;;;;;;0.32;92.70;100116.28;5089930;28;20039;-71
2022/11/22 01:05:54;;;;;;;3.92;2.95;;;;;;;0.25;92.69;100105.47;5089560;28;20035;-72
2022/11/22 01:08:20;;;;;;;4.00;2.90;;;;;;;0.04;92.70;100073.19;5063630;28;20114;-71
2022/11/22 01:10:45;;;;;;;3.63;2.65;;;;;;;0.31;92.76;100117.28;5102991;28;20027;-71
2022/11/22 01:13:14;;;;;;;3.50;2.60;;;;;;;0.26;93.21;100120.34;5075253;28;20055;-72
2022/11/22 01:15:39;;;;;;;3.67;2.63;;;;;;;0.18;92.88;100101.75;5074909;28;20039;-71
2022/11/22 01:18:05;;;;;;;5.40;2.85;;;;;;;0.34;93.09;100125.75;5106230;28;20352;-72
2022/11/22 01:20:30;;;;;;;4.22;2.80;;;;;;;0.17;92.83;100100.94;5098365;28;20043;-71
2022/11/22 01:22:57;;;;;;;3.08;2.67;;;;;;;0.32;92.91;100118.94;5099744;28;20024;-71
2022/11/22 01:25:22;;;;;;;3.85;2.78;;;;;;;0.32;93.12;100126.88;5088953;28;20115;-71
2022/11/22 01:27:49;;;;;;;3.33;2.75;;;;;;;0.33;92.94;100125.88;5073785;28;20048;-71
2022/11/22 01:30:15;;;;;;;3.72;2.70;;;;;;;0.30;92.82;100119.09;5114215;28;20096;-71
2022/11/22 01:32:41;;;;;;;3.10;2.50;;;;;;;0.27;93.22;100110.63;5101263;28;20487;-71
2022/11/22 01:35:06;;;;;;;3.67;2.72;;;;;;;0.39;92.66;100126.13;5079526;28;20044;-71
2022/11/22 01:37:32;;;;;;;3.05;2.40;;;;;;;0.45;92.71;100130.81;5089611;28;20051;-71
2022/11/22 01:40:00;;;;;;;3.47;2.92;;;;;;;0.52;92.80;100130.22;5106928;28;20032;-71
2022/11/22 01:42:49;;;;;;;3.20;2.60;;;;;;;0.63;92.91;100132.63;5095868;28;20505;-71
2022/11/22 01:45:29;;;;;;;2.63;2.38;;;;;;;0.69;93.00;100132.03;5073225;28;20088;-71
2022/11/22 01:48:00;;;;;;;3.08;2.60;;;;;;;0.65;93.60;100131.50;5107314;28;20027;-71
2022/11/22 01:50:28;;;;;;;3.72;2.78;;;;;;;0.70;93.89;100129.25;5115097;28;20383;-71
2022/11/22 01:52:55;;;;;;;3.65;2.70;;;;;;;0.68;94.71;100125.06;5101636;28;20049;-71
2022/11/22 01:55:21;;;;;;;3.47;2.65;;;;;;;0.64;96.42;100121.06;5112152;28;20431;-71
2022/11/22 01:57:47;;;;;;;4.40;3.10;;;;;;;0.83;95.35;100128.00;5074505;28;20063;-73
2022/11/22 02:00:15;;;;;;;2.80;2.50;;;;;;;0.67;95.87;100091.66;5104710;28;20036;-71
2022/11/22 02:02:45;;;;;;;4.85;2.78;;;;;;;0.93;94.65;100119.00;5096888;28;20031;-71
2022/11/22 02:05:16;;;;;;;3.08;2.50;;;;;;;0.87;94.42;100101.06;5086695;28;20101;-71
2022/11/22 02:08:08;;;;;;;3.30;2.58;;;;;;;0.94;94.67;100117.19;5093152;28;20024;-71
2022/11/22 02:10:39;;;;;;;3.80;2.70;;;;;;;1.01;94.22;100115.56;5098741;28;20102;-71
2022/11/22 02:13:05;;;;;;;3.03;2.50;;;;;;;1.04;93.83;100119.75;5105928;28;20027;-71
2022/11/22 02:15:31;;;;;;;2.72;2.47;;;;;;;1.05;93.80;100116.09;5113091;28;20036;-71
2022/11/22 02:17:56;;;;;;;3.25;2.40;;;;;;;1.09;93.52;100122.75;5113220;28;20043;-71
2022/11/22 02:20:22;;;;;;;3.47;2.60;;;;;;;1.02;93.66;100119.06;5087505;28;20514;-71
2022/11/22 02:22:55;;;;;;;4.18;2.70;;;;;;;1.12;93.61;100135.69;5083378;28;20050;-71
2022/11/22 02:25:35;;;;;;;3.35;2.42;;;;;;;1.09;93.59;100136.84;5091048;28;20110;-72
2022/11/22 02:28:00;;;;;;;3.85;2.60;;;;;;;0.95;94.00;100129.44;5108344;28;20035;-71
2022/11/22 02:30:26;;;;;;;3.60;2.78;;;;;;;1.03;93.92;100134.00;5097395;28;20030;-71
2022/11/22 02:32:51;;;;;;;4.30;3.00;;;;;;;0.75;94.38;100104.94;5068217;28;20035;-71
2022/11/22 02:35:25;;;;;;;4.50;2.65;;;;;;;0.71;94.42;100100.94;5095236;28;20038;-71
2022/11/22 02:38:00;;;;;;;3.53;2.35;;;;;;;0.83;95.07;100128.84;5110115;28;20063;-71
2022/11/22 02:40:31;;;;;;;3.67;2.50;;;;;;;0.50;96.14;100111.00;5103160;28;20402;-71
2022/11/22 02:43:03;;;;;;;2.90;2.30;;;;;;;0.87;95.59;100137.34;5115744;28;20112;-71
2022/11/22 02:45:29;;;;;;;4.55;2.78;;;;;;;0.85;95.31;100134.81;5106705;28;20490;-71
2022/11/22 02:48:16;;;;;;;2.92;2.47;;;;;;;0.84;95.07;100141.09;5107238;28;20107;-71
2022/11/22 02:50:41;;;;;;;2.88;2.45;;;;;;;0.53;95.46;100095.66;5096724;28;20045;-71
2022/11/22 02:53:08;;;;;;;3.28;2.50;;;;;;;0.78;95.63;100133.75;5084487;28;20146;-71
2022/11/22 02:55:33;;;;;;;3.15;2.47;;;;;;;0.75;95.51;100136.72;5110187;28;20039;-71
2022/11/22 02:57:59;;;;;;;4.18;2.72;;;;;;;0.85;95.05;100140.13;5110344;28;20036;-71
2022/11/22 03:00:24;;;;;;;4.25;2.65;;;;;;;0.90;94.43;100142.31;5085238;28;20749;-71
2022/11/22 03:02:50;;;;;;;3.28;2.47;;;;;;;0.93;94.37;100139.38;5097118;28;20063;-71
2022/11/22 03:05:16;;;;;;;3.38;2.85;;;;;;;0.94;94.14;100138.38;5086516;28;20047;-71
2022/11/22 03:07:41;;;;;;;2.50;2.22;;;;;;;0.71;94.00;100098.28;5109052;28;20032;-71
2022/11/22 03:10:07;;;;;;;2.90;2.50;;;;;;;0.86;93.98;100131.22;5110781;28;20023;-71
2022/11/22 03:12:35;;;;;;;3.20;2.38;;;;;;;0.90;94.00;100140.50;5117966;28;20478;-71
2022/11/22 03:15:00;;;;;;;3.13;2.63;;;;;;;0.65;95.03;100125.38;5050712;28;20028;-71
2022/11/22 03:17:25;;;;;;;3.95;2.45;;;;;;;0.84;94.55;100134.97;5110182;28;20044;-71
2022/11/22 03:19:51;;;;;;;3.42;2.50;;;;;;;0.93;94.28;100134.06;5090349;28;20031;-71
2022/11/22 03:22:16;;;;;;;3.55;2.67;;;;;;;0.92;94.06;100140.34;5084966;28;20098;-71
2022/11/22 03:24:42;;;;;;;2.90;2.40;;;;;;;0.94;94.05;100131.25;5095803;28;20473;-71
2022/11/22 03:27:07;;;;;;;3.30;2.80;;;;;;;0.94;93.90;100136.56;5101923;28;20035;-71
2022/11/22 03:29:33;;;;;;;3.45;2.50;;;;;;;0.81;93.61;100109.63;5090781;28;20042;-71
2022/11/22 03:31:58;;;;;;;3.70;2.90;;;;;;;0.98;93.88;100137.06;5073885;28;20038;-71
2022/11/22 03:34:24;;;;;;;3.38;2.50;;;;;;;0.88;94.59;100134.50;5083265;28;20082;-72
2022/11/22 03:36:49;;;;;;;3.60;2.45;;;;;;;1.03;94.17;100140.13;5095644;28;20031;-71
2022/11/22 03:39:15;;;;;;;3.53;2.50;;;;;;;1.02;94.25;100140.25;5102488;28;20024;-71
2022/11/22 03:41:40;;;;;;;4.05;2.53;;;;;;;1.03;94.50;100139.28;5089081;28;20379;-71
2022/11/22 03:44:06;;;;;;;5.53;2.80;;;;;;;0.97;95.75;100137.25;5092279;28;20030;-71
2022/11/22 03:46:31;;;;;;;3.55;2.42;;;;;;;1.13;95.07;100147.97;5082687;28;20032;-71
2022/11/22 03:48:56;;;;;;;3.95;2.97;;;;;;;1.01;96.30;100146.53;5078523;28;20501;-71
2022/11/22 03:51:22;;;;;;;3.92;3.03;;;;;;;1.13;95.52;100134.72;5103764;28;20050;-71
2022/11/22 03:53:47;;;;;;;3.15;2.85;;;;;;;1.28;94.97;100143.75;5087911;28;20173;-71
2022/11/22 03:56:13;;;;;;;3.40;2.42;;;;;;;1.22;95.62;100148.84;5092753;28;20039;-71
2022/11/22 03:58:38;;;;;;;3.78;2.78;;;;;;;1.31;96.07;100159.34;5099978;28;20036;-71
2022/11/22 04:01:04;;;;;;;3.53;2.55;;;;;;;1.34;96.33;100150.25;5113845;28;20028;-71
2022/11/22 04:03:29;;;;;;;3.15;2.78;;;;;;;1.50;96.10;100154.84;5087280;28;20039;-72
2022/11/22 04:05:55;;;;;;;3.15;2.60;;;;;;;1.28;96.35;100122.56;5087067;28;20036;-71
2022/11/22 04:08:20;;;;;;;3.10;2.72;;;;;;;1.56;96.33;100159.53;5074002;28;20020;-70
2022/11/22 04:10:48;;;;;;;3.35;2.80;;;;;;;1.21;98.36;100134.75;5076954;28;20111;-70
2022/11/22 04:13:13;;;;;;;3.30;2.85;;;;;;;1.65;97.25;100148.78;5110700;28;20032;-71
2022/11/22 04:15:39;;;;;;;5.55;3.10;;;;;;;1.73;96.58;100150.66;5105462;28;20119;-72
2022/11/22 04:18:08;;;;;;;4.03;3.10;;;;;;;1.59;96.60;100122.06;5085830;28;20115;-72
2022/11/22 04:23:19;;;;;;;4.13;2.47;;;;;;;1.91;97.40;100165.66;5110859;28;20493;-72
2022/11/22 04:25:50;;;;;;;4.60;3.20;;;;;;;2.17;96.21;100162.97;5105236;28;20433;-71
2022/11/22 04:28:19;;;;;;;6.43;3.17;;;;;;;2.06;95.74;100156.13;5102307;28;20035;-71
2022/11/22 04:33:28;;;;;;;4.45;2.92;;;;;;;2.19;96.06;100164.47;5103615;28;20390;-72
2022/11/22 04:35:54;;;;;;;3.65;3.03;;;;;;;2.34;95.96;100172.63;5070503;28;20024;-73
2022/11/22 04:38:20;;;;;;;4.68;3.30;;;;;;;2.37;95.90;100163.53;5092791;28;20032;-74
2022/11/22 04:40:46;;;;;;;3.88;2.90;;;;;;;2.28;97.37;100165.31;5081478;28;20028;-72
2022/11/22 04:46:10;;;;;;;3.45;3.15;;;;;;;2.53;96.24;100172.34;5094299;28;20038;-71
2022/11/22 04:48:36;;;;;;;4.60;3.65;;;;;;;2.56;95.39;100173.88;5081118;28;20055;-71
2022/11/22 04:53:46;;;;;;;4.07;3.65;;;;;;;2.67;95.65;100178.84;5106493;28;20115;-72
2022/11/22 04:56:12;;;;;;;4.32;3.63;;;;;;;2.71;95.69;100174.88;5102979;28;20056;-71
2022/11/22 04:58:38;;;;;;;4.28;3.85;;;;;;;2.71;95.85;100177.53;5077387;28;20036;-72
2022/11/22 05:01:03;;;;;;;4.25;3.85;;;;;;;2.69;95.88;100166.25;5081923;28;20024;-69
2022/11/22 05:03:29;;;;;;;4.15;3.55;;;;;;;2.59;96.17;100174.38;5090169;28;20529;-71
2022/11/22 05:05:54;;;;;;;4.35;3.60;;;;;;;2.26;98.79;100149.56;5072218;28;20089;-70
2022/11/22 05:08:20;;;;;;;6.60;3.28;;;;;;;2.44;99.96;100159.22;5066643;28;20032;-68
2022/11/22 05:10:56;;;;;;;4.55;3.13;;;;;;;2.20;100.00;100128.97;5112467;28;20036;-67
2022/11/22 05:13:32;;;;;;;3.10;2.58;;;;;;;2.36;100.00;100170.66;5102390;28;20032;-68
2022/11/22 05:15:59;;;;;;;3.47;2.78;;;;;;;2.42;100.00;100170.00;5087696;28;20032;-70
2022/11/22 05:18:29;;;;;;;3.92;2.90;;;;;;;2.56;100.00;100181.84;5114518;28;20039;-72
2022/11/22 05:20:55;;;;;;;3.75;3.13;;;;;;;2.22;100.00;100184.53;5102305;28;20062;-73
2022/11/22 05:26:06;;;;;;;3.10;2.80;;;;;;;2.41;100.00;100184.25;5112643;28;20030;-73
2022/11/22 05:28:34;;;;;;;5.07;3.90;;;;;;;2.65;100.00;100182.66;5103690;28;20087;-71
2022/11/22 05:31:09;;;;;;;5.75;4.10;;;;;;;2.77;100.00;100190.16;5116350;28;20040;-74
2022/11/22 05:33:38;;;;;;;5.95;4.03;;;;;;;2.52;100.00;100180.50;5089260;28;20114;-71
2022/11/22 05:36:05;;;;;;;6.25;4.43;;;;;;;2.63;100.00;100188.16;5089116;28;20036;-71
2022/11/22 05:38:31;;;;;;;7.53;4.40;;;;;;;2.58;100.00;100191.31;5097104;28;20080;-70
2022/11/22 05:40:57;;;;;;;7.70;4.38;;;;;;;2.75;100.00;100194.81;5102279;28;20574;-71
2022/11/22 05:43:22;;;;;;;6.30;4.57;;;;;;;2.55;100.00;100170.38;5113466;28;20089;-71
2022/11/22 05:45:47;;;;;;;4.70;3.63;;;;;;;2.54;100.00;100186.47;5090679;28;20035;-70
2022/11/22 05:48:13;;;;;;;4.75;3.42;;;;;;;2.41;100.00;100202.84;5087230;28;20035;-71
2022/11/22 05:50:38;;;;;;;5.85;3.95;;;;;;;2.23;100.00;100187.03;5097297;28;20028;-71
2022/11/22 05:53:04;;;;;;;4.20;2.85;;;;;;;2.14;100.00;100188.00;5084796;28;20080;-71
2022/11/22 05:55:29;;;;;;;7.03;4.10;;;;;;;2.40;100.00;100214.47;5076835;28;20055;-71
2022/11/22 05:57:59;;;;;;;5.20;3.58;;;;;;;2.16;100.00;100177.22;5091517;28;20032;-70
2022/11/22 06:00:25;;;;;;;6.07;3.97;;;;;;;2.47;100.00;100220.81;5103680;28;20432;-71
2022/11/22 06:03:02;;;;;;;6.40;4.68;;;;;;;2.65;100.00;100226.00;5084005;28;20028;-70
2022/11/22 06:05:28;;;;;;;6.03;4.70;;;;;;;2.41;100.00;100200.19;5111447;28;20048;-71
2022/11/22 06:07:57;;;;;;;6.32;4.60;;;;;;;2.63;100.00;100225.34;5109261;28;20363;-69
2022/11/22 06:10:23;;;;;;;7.50;5.25;;;;;;;2.46;100.00;100184.63;5102648;28;20028;-70
2022/11/22 06:12:48;;;;;;;15.68;12.27;;;;;;;2.63;100.00;100219.19;5114317;28;20034;-71
2022/11/22 06:15:13;;;;;;;25.35;13.77;;;;;;;2.70;100.00;100218.38;5084766;28;20087;-71
2022/11/22 06:17:39;;;;;;;9.77;8.07;;;;;;;2.81;100.00;100223.41;5091387;28;20043;-70
2022/11/22 06:20:05;;;;;;;9.48;7.78;;;;;;;2.74;100.00;100226.84;5092325;28;20036;-71
2022/11/22 06:22:30;;;;;;;5.78;5.18;;;;;;;2.63;100.00;100227.16;5081312;28;20495;-72
2022/11/22 06:24:55;;;;;;;8.77;6.60;;;;;;;2.46;100.00;100226.28;5092839;28;20045;-70
2022/11/22 06:27:21;;;;;;;7.05;6.07;;;;;;;2.39;100.00;100231.41;5083812;28;20432;-69
2022/11/22 06:29:46;;;;;;;9.40;6.88;;;;;;;2.32;100.00;100228.56;5107409;28;20107;-70
2022/11/22 06:32:12;;;;;;;8.75;6.63;;;;;;;2.41;100.00;100234.72;5110987;28;20031;-71
2022/11/22 06:34:37;;;;;;;6.88;5.38;;;;;;;2.32;100.00;100233.88;5099417;28;20457;-71
2022/11/22 06:37:02;;;;;;;9.32;6.70;;;;;;;2.38;100.00;100226.25;5066685;28;20122;-70
2022/11/22 06:39:28;;;;;;;11.52;7.10;;;;;;;2.52;100.00;100247.72;5110205;28;20043;-71
2022/11/22 06:41:53;;;;;;;8.13;6.57;;;;;;;2.53;100.00;100248.53;5108532;28;20169;-70
2022/11/22 06:44:19;;;;;;;8.88;6.63;;;;;;;2.51;100.00;100246.03;5104077;28;20032;-71
2022/11/22 06:46:44;;;;;;;8.70;6.13;;;;;;;2.27;100.00;100237.97;5114566;28;20401;-70
2022/11/22 06:49:09;;;;;;;9.10;7.07;;;;;;;2.43;100.00;100242.53;5084018;28;20035;-70
2022/11/22 06:51:35;;;;;;;10.73;7.10;;;;;;;2.48;100.00;100254.31;5106503;28;20115;-72
2022/11/22 06:54:00;;;;;;;8.85;7.00;;;;;;;2.50;100.00;100257.66;5091123;28;20039;-71
2022/11/22 06:56:31;;;;;;;11.13;7.15;;;;;;;2.64;100.00;100258.84;5084556;28;20039;-72
2022/11/22 06:59:02;;;;;;;12.25;8.23;;;;;;;2.69;100.00;100267.19;5095841;28;20030;-71
2022/11/22 07:01:28;;;;;;;11.15;7.68;;;;;;;2.69;100.00;100269.84;5086400;28;20406;-71
2022/11/22 07:03:56;;;;;;;12.82;8.27;;;;;;;2.75;100.00;100268.38;5107346;28;20051;-72
2022/11/22 07:06:24;;;;;;;11.95;8.60;;;;;;;2.77;99.59;100271.69;5111758;28;20062;-72
2022/11/22 07:08:49;;;;;;;16.13;10.52;;;;;;;2.61;100.00;100269.81;5082449;28;20024;-71
2022/11/22 07:11:24;;;;;;;17.73;11.82;;;;;;;2.70;100.00;100268.84;5094545;28;20043;-71
2022/11/22 07:13:50;;;;;;;19.58;13.05;;;;;;;2.68;100.00;100262.03;5089142;28;20031;-71
2022/11/22 07:16:18;;;;;;;24.27;14.70;;;;;;;2.89;99.58;100282.88;5103917;28;20549;-71
2022/11/22 07:18:44;;;;;;;16.70;11.27;;;;;;;2.92;99.76;100287.84;5113660;28;20027;-72
2022/11/22 07:21:12;;;;;;;17.33;12.45;;;;;;;2.92;100.00;100291.34;5065544;28;20371;-71
2022/11/22 07:23:38;;;;;;;18.15;11.95;;;;;;;2.79;99.66;100256.44;5089263;28;20486;-71
2022/11/22 07:26:07;;;;;;;14.02;10.07;;;;;;;2.99;100.00;100304.81;5088863;28;20028;-72
2022/11/22 07:28:36;;;;;;;16.15;9.70;;;;;;;3.02;100.00;100304.50;5080897;28;20024;-72
2022/11/22 07:31:04;;;;;;;15.45;9.60;;;;;;;2.93;100.00;100294.81;5093445;28;20051;-72
2022/11/22 07:33:30;;;;;;;17.27;11.40;;;;;;;3.08;99.77;100313.63;5083905;28;20032;-71
2022/11/22 07:36:02;;;;;;;13.35;9.07;;;;;;;2.80;100.00;100288.13;5086972;28;20047;-71
2022/11/22 07:38:27;;;;;;;12.10;9.27;;;;;;;3.00;100.00;100314.44;5111340;28;20023;-71
2022/11/22 07:40:52;;;;;;;16.27;8.35;;;;;;;2.97;100.00;100314.75;5064365;28;20109;-72
2022/11/22 07:43:18;;;;;;;24.10;12.52;;;;;;;3.20;100.00;100329.09;5093168;28;20036;-71
2022/11/22 07:45:45;;;;;;;22.20;11.60;;;;;;;3.31;99.52;100317.31;5070484;28;20038;-72
2022/11/22 07:48:13;;;;;;;11.98;8.57;;;;;;;3.14;100.00;100323.59;5086265;28;20044;-72
2022/11/22 07:50:39;;;;;;;14.77;8.57;;;;;;;3.43;99.35;100328.47;5095170;28;20073;-72
2022/11/22 07:53:04;;;;;;;11.48;8.48;;;;;;;3.33;99.28;100333.13;5083728;28;20567;-71
2022/11/22 07:55:30;;;;;;;14.27;8.32;;;;;;;3.40;99.20;100315.50;5091222;28;20036;-71
2022/11/22 07:57:59;;;;;;;16.15;8.15;;;;;;;3.46;99.26;100333.47;5089154;28;20521;-74
2022/11/22 08:00:25;;;;;;;12.57;8.68;;;;;;;3.49;98.88;100338.47;5084096;28;20028;-72
2022/11/22 08:02:54;;;;;;;14.65;9.07;;;;;;;3.64;98.38;100346.63;5113354;28;20035;-72
2022/11/22 08:05:21;;;;;;;10.30;7.82;;;;;;;3.64;98.56;100347.47;5101904;28;20126;-72
2022/11/22 08:07:48;;;;;;;13.57;7.72;;;;;;;3.69;97.79;100344.31;5107260;28;20028;-72
2022/11/22 08:10:14;;;;;;;12.50;7.70;;;;;;;3.60;97.82;100329.31;5109600;28;20046;-73
2022/11/22 08:12:39;;;;;;;11.20;8.18;;;;;;;3.75;97.87;100349.78;5081281;28;20118;-71
2022/11/22 08:15:06;;;;;;;10.48;7.65;;;;;;;3.72;97.81;100358.09;5082897;28;20107;-74
2022/11/22 08:17:31;;;;;;;11.05;8.32;;;;;;;3.67;98.12;100356.94;5107962;28;20051;-72
2022/11/22 08:20:03;;;;;;;13.55;8.30;;;;;;;3.88;97.26;100369.78;5070138;28;20425;-72
2022/11/22 08:22:28;;;;;;;10.57;7.32;;;;;;;3.86;97.10;100361.94;5100524;28;20110;-72
2022/11/22 08:24:54;;;;;;;13.30;7.50;;;;;;;4.09;96.15;100370.06;5094923;28;20062;-73
2022/11/22 08:27:19;;;;;;;11.30;7.72;;;;;;;3.97;96.91;100360.75;5101593;28;20035;-73
2022/11/22 08:29:44;;;;;;;11.05;7.78;;;;;;;3.88;96.37;100337.84;5107563;28;20490;-72
2022/11/22 08:32:10;;;;;;;12.88;6.95;;;;;;;3.97;96.26;100360.75;5090798;28;20047;-72
2022/11/22 08:34:35;;;;;;;13.77;9.80;;;;;;;3.95;96.46;100360.13;5082585;28;20044;-72
2022/11/22 08:37:00;;;;;;;39.05;23.95;;;;;;;3.93;96.27;100354.94;5061412;28;20375;-72
2022/11/22 08:39:26;;;;;;;18.33;10.80;;;;;;;4.08;95.86;100365.75;5084448;28;20039;-72
2022/11/22 08:41:54;;;;;;;23.85;13.95;;;;;;;3.79;95.70;100344.16;5088678;28;20089;-73
2022/11/22 08:44:19;;;;;;;49.33;27.20;;;;;;;3.88;95.82;100369.78;5110133;28;20102;-74
2022/11/22 08:46:44;;;;;;;45.35;22.30;;;;;;;3.69;95.60;100339.81;5081181;28;20057;-72
2022/11/22 08:49:10;;;;;;;57.35;26.38;;;;;;;3.90;95.56;100363.25;5094350;28;20024;-73
2022/11/22 08:51:36;;;;;;;48.67;21.33;;;;;;;3.94;95.60;100364.63;5087197;28;20023;-72
2022/11/22 08:54:01;;;;;;;44.42;20.30;;;;;;;4.04;94.95;100371.56;5091087;28;20035;-73
2022/11/22 08:56:27;;;;;;;55.40;24.55;;;;;;;4.06;94.78;100385.56;5080115;28;20086;-72
2022/11/22 08:58:53;;;;;;;119.15;52.42;;;;;;;4.21;94.52;100387.38;5102980;28;20036;-73
2022/11/22 09:01:20;;;;;;;37.88;20.17;;;;;;;3.95;94.67;100360.94;5115319;28;20180;-73
2022/11/22 09:03:46;;;;;;;49.38;27.98;;;;;;;3.78;94.22;100347.81;5090309;28;20054;-72
2022/11/22 09:06:14;;;;;;;38.97;21.40;;;;;;;4.14;93.95;100397.06;5107610;28;20048;-73
2022/11/22 09:08:40;;;;;;;25.63;16.52;;;;;;;4.24;93.96;100399.53;5116413;28;20024;-73
2022/11/22 09:11:11;;;;;;;14.48;9.60;;;;;;;4.51;92.91;100401.00;5068871;28;20035;-73
2022/11/22 09:13:37;;;;;;;14.07;8.48;;;;;;;4.64;92.41;100390.63;5094198;28;20028;-73
2022/11/22 09:16:10;;;;;;;16.17;10.10;;;;;;;4.46;92.64;100390.81;5111497;28;20036;-73
2022/11/22 09:18:36;;;;;;;12.85;7.07;;;;;;;4.41;92.68;100371.03;5085595;28;20517;-72
2022/11/22 09:21:04;;;;;;;10.48;6.20;;;;;;;4.27;93.38;100387.69;5098417;28;20024;-74
2022/11/22 09:23:30;;;;;;;11.40;6.82;;;;;;;4.23;93.49;100398.69;5106803;28;20031;-72
2022/11/22 09:26:01;;;;;;;13.40;7.28;;;;;;;4.27;93.38;100393.03;5110007;28;20043;-74
2022/11/22 09:28:27;;;;;;;11.98;7.32;;;;;;;4.35;92.62;100391.19;5114803;28;20110;-73
2022/11/22 09:31:06;;;;;;;12.77;7.20;;;;;;;4.40;92.31;100396.84;5068387;28;20502;-73
2022/11/22 09:33:34;;;;;;;14.88;6.82;;;;;;;4.23;92.17;100371.22;5112798;28;20036;-73
2022/11/22 09:36:08;;;;;;;14.43;6.40;;;;;;;4.32;92.23;100390.69;5092380;28;20406;-73
2022/11/22 09:38:34;;;;;;;12.67;6.43;;;;;;;4.39;92.16;100405.84;5085543;28;20048;-73
2022/11/22 09:41:44;;;;;;;9.57;5.95;;;;;;;4.31;92.58;100405.03;5098086;28;20268;-74
2022/11/22 09:44:16;;;;;;;12.88;6.50;;;;;;;4.41;92.17;100403.00;5035486;28;20043;-73
2022/11/22 09:46:59;;;;;;;8.95;5.68;;;;;;;4.03;92.51;100397.38;5116041;28;20554;-73
2022/11/22 09:49:42;;;;;;;12.45;5.93;;;;;;;4.23;92.10;100403.19;5073205;28;20028;-73
2022/11/22 09:52:09;;;;;;;12.50;6.63;;;;;;;4.20;92.17;100399.03;5076563;28;20044;-73
2022/11/22 09:54:50;;;;;;;15.93;6.32;;;;;;;4.34;92.00;100410.84;5076324;28;20048;-73
2022/11/22 09:57:23;;;;;;;9.25;6.43;;;;;;;4.36;91.43;100408.84;5045761;28;20498;-73
2022/11/22 09:59:57;;;;;;;11.02;6.25;;;;;;;4.17;92.31;100407.38;5076970;28;20116;-76
2022/11/22 10:02:30;;;;;;;8.93;5.38;;;;;;;4.11;92.04;100402.72;5078733;28;20096;-76
2022/11/22 10:05:00;;;;;;;12.73;6.68;;;;;;;4.28;91.97;100398.19;5077414;28;20048;-74
2022/11/22 10:07:30;;;;;;;9.98;5.95;;;;;;;4.14;92.40;100396.19;5075646;28;20041;-75
2022/11/22 10:10:16;;;;;;;9.45;5.82;;;;;;;4.27;91.93;100395.69;5078179;28;20645;-75
2022/11/22 10:13:21;;;;;;;9.68;5.47;;;;;;;4.29;92.22;100399.03;5079124;28;20052;-76
2022/11/22 10:16:04;;;;;;;10.15;5.78;;;;;;;4.33;91.18;100384.38;5054986;28;20094;-77
2022/11/22 10:18:33;;;;;;;8.73;5.25;;;;;;;4.59;90.73;100400.13;5077188;28;20059;-77
2022/11/22 10:20:59;;;;;;;11.13;5.10;;;;;;;4.72;90.50;100390.59;5077071;28;20032;-75
2022/11/22 10:23:25;;;;;;;13.57;6.32;;;;;;;4.47;90.60;100381.84;5086897;28;20039;-74
2022/11/22 10:26:04;;;;;;;9.40;5.80;;;;;;;4.75;89.92;100391.28;5071596;28;20307;-75
2022/11/22 10:28:30;;;;;;;9.07;5.15;;;;;;;4.58;90.77;100403.81;5091072;28;20069;-74
2022/11/22 10:31:13;;;;;;;6.93;4.70;;;;;;;4.73;89.81;100396.75;5102774;28;20551;-77
2022/11/22 10:33:57;;;;;;;6.13;4.38;;;;;;;4.59;88.86;100373.50;5093020;28;20031;-74
2022/11/22 10:36:54;;;;;;;13.73;8.93;;;;;;;4.80;89.69;100403.09;5095014;28;20482;-74
2022/11/22 10:39:30;;;;;;;8.75;5.05;;;;;;;4.66;90.26;100404.59;5071060;28;20466;-74
2022/11/22 10:42:43;;;;;;;23.88;13.60;;;;;;;4.84;89.71;100393.75;5090296;28;20028;-73
2022/11/22 10:45:32;;;;;;;26.67;16.50;;;;;;;5.00;88.86;100403.53;4990039;28;20035;-73
2022/11/22 10:48:19;;;;;;;7.10;4.78;;;;;;;4.85;88.67;100381.25;5099791;28;20016;-74
2022/11/22 10:51:15;;;;;;;8.52;4.60;;;;;;;5.01;88.81;100396.34;5084382;28;20024;-73
2022/11/22 10:53:52;;;;;;;8.43;4.68;;;;;;;4.94;89.32;100401.53;5111178;28;20028;-72
2022/11/22 10:56:36;;;;;;;8.43;4.50;;;;;;;4.93;88.65;100397.19;5112285;28;20035;-72
2022/11/22 10:59:46;;;;;;;7.03;4.43;;;;;;;5.04;88.81;100398.69;5101991;28;20036;-71
2022/11/22 11:02:34;;;;;;;8.48;5.10;;;;;;;4.97;88.19;100406.53;5088472;28;20086;-72
2022/11/22 11:05:04;;;;;;;10.98;5.13;;;;;;;5.02;88.01;100390.84;5116363;28;20066;-73
2022/11/22 11:07:30;;;;;;;8.15;5.22;;;;;;;5.01;88.85;100380.34;5105700;28;20046;-73
2022/11/22 11:10:01;;;;;;;9.75;5.18;;;;;;;4.98;88.37;100373.53;5108181;28;20034;-74
2022/11/22 11:12:49;;;;;;;12.43;5.47;;;;;;;4.94;88.32;100406.88;5113625;28;20031;-73
2022/11/22 11:15:14;;;;;;;9.35;4.65;;;;;;;5.12;88.97;100395.97;5068648;28;20023;-74
2022/11/22 11:17:42;;;;;;;8.73;4.60;;;;;;;4.62;90.12;100378.47;5091850;28;20513;-73
2022/11/22 11:20:18;;;;;;;9.15;5.50;;;;;;;4.66;90.00;100353.97;5091301;28;20031;-74
2022/11/22 11:22:44;;;;;;;9.05;4.57;;;;;;;4.98;89.54;100397.53;5083358;28;20063;-73
2022/11/22 11:25:49;;;;;;;7.45;4.80;;;;;;;4.92;90.06;100406.22;5096530;28;20051;-73
2022/11/22 11:28:15;;;;;;;9.50;4.43;;;;;;;4.96;89.28;100402.19;5015664;28;20093;-73
2022/11/22 11:30:48;;;;;;;10.90;5.53;;;;;;;4.78;90.01;100380.28;5015633;28;20484;-75
2022/11/22 11:33:25;;;;;;;8.25;4.18;;;;;;;4.80;90.20;100391.56;5039258;28;20032;-75
2022/11/22 11:36:06;;;;;;;7.25;4.38;;;;;;;4.67;91.20;100406.28;5090717;28;20043;-75
2022/11/22 11:38:40;;;;;;;6.82;4.10;;;;;;;4.04;90.60;100303.22;5113399;28;20096;-75
2022/11/22 11:41:31;;;;;;;6.45;4.03;;;;;;;4.65;91.65;100394.97;5083332;28;20028;-74
2022/11/22 11:43:59;;;;;;;6.43;4.18;;;;;;;4.41;91.97;100403.00;5089548;28;20036;-75
2022/11/22 11:46:44;;;;;;;6.80;3.95;;;;;;;4.44;92.24;100400.00;5097868;28;20069;-75
2022/11/22 11:49:14;;;;;;;4.55;3.55;;;;;;;4.57;91.39;100402.13;5049824;28;20038;-75
2022/11/22 11:51:45;;;;;;;5.15;3.80;;;;;;;4.61;90.89;100390.16;5071299;28;20097;-75